sensor_id;sensor_type;location;lat;lon;timestamp;pressure;altitude;pressure_sealevel;temperature;humidity
53754;BME280;39667;52.274;20.964;2023-02-16T14:12:39;100759.70;;;7.29;66.08
53754;BME280;39667;52.274;20.964;2023-02-16T14:15:20;100758.63;;;7.26;66.28
53754;BME280;39667;52.274;20.964;2023-02-16T14:17:50;100751.95;;;7.25;66.52
53754;BME280;39667;52.274;20.964;2023-02-16T14:23:19;100758.58;;;7.23;66.58
53754;BME280;39667;52.274;20.964;2023-02-16T14:26:04;100756.45;;;7.21;66.54
53754;BME280;39667;52.274;20.964;2023-02-16T14:31:52;100757.40;;;7.10;66.71
53754;BME280;39667;52.274;20.964;2023-02-16T14:34:53;100755.59;;;7.05;66.85
53754;BME280;39667;52.274;20.964;2023-02-16T14:39:54;100762.57;;;6.88;67.24
53754;BME280;39667;52.274;20.964;2023-02-16T14:42:35;100761.95;;;6.79;67.47
53754;BME280;39667;52.274;20.964;2023-02-16T15:00:28;100760.55;;;6.39;69.09
53754;BME280;39667;52.274;20.964;2023-02-16T15:12:28;100756.09;;;6.33;69.69
53754;BME280;39667;52.274;20.964;2023-02-16T15:15:03;100754.66;;;6.31;69.76
53754;BME280;39667;52.274;20.964;2023-02-16T15:17:54;100755.81;;;6.26;69.77
53754;BME280;39667;52.274;20.964;2023-02-16T15:20:32;100752.75;;;6.20;70.01
53754;BME280;39667;52.274;20.964;2023-02-16T15:23:05;100754.27;;;6.16;70.11
53754;BME280;39667;52.274;20.964;2023-02-16T15:26:06;100753.86;;;6.13;70.35
53754;BME280;39667;52.274;20.964;2023-02-16T15:28:57;100757.14;;;6.00;70.63
53754;BME280;39667;52.274;20.964;2023-02-16T15:31:35;100757.19;;;5.92;70.79
53754;BME280;39667;52.274;20.964;2023-02-16T15:34:11;100757.66;;;5.88;71.12
53754;BME280;39667;52.274;20.964;2023-02-16T15:43:47;100749.55;;;5.84;71.57
53754;BME280;39667;52.274;20.964;2023-02-16T15:46:42;100749.30;;;5.79;71.66
53754;BME280;39667;52.274;20.964;2023-02-16T15:49:27;100746.84;;;5.78;71.67
53754;BME280;39667;52.274;20.964;2023-02-16T15:51:59;100746.95;;;5.75;71.79
53754;BME280;39667;52.274;20.964;2023-02-16T15:54:32;100750.14;;;5.67;71.99
53754;BME280;39667;52.274;20.964;2023-02-16T15:57:29;100744.14;;;5.63;72.13
53754;BME280;39667;52.274;20.964;2023-02-16T16:00:14;100742.50;;;5.59;72.34
53754;BME280;39667;52.274;20.964;2023-02-16T16:02:52;100742.05;;;5.54;72.40
53754;BME280;39667;52.274;20.964;2023-02-16T16:05:24;100738.71;;;5.53;72.49
53754;BME280;39667;52.274;20.964;2023-02-16T16:07:58;100737.46;;;5.51;72.71
53754;BME280;39667;52.274;20.964;2023-02-16T16:10:31;100740.38;;;5.48;72.83
53754;BME280;39667;52.274;20.964;2023-02-16T16:13:10;100742.04;;;5.42;72.95
53754;BME280;39667;52.274;20.964;2023-02-16T16:15:44;100740.73;;;5.38;73.13
53754;BME280;39667;52.274;20.964;2023-02-16T16:18:35;100744.86;;;5.34;73.20
53754;BME280;39667;52.274;20.964;2023-02-16T16:29:26;100738.98;;;5.17;73.80
53754;BME280;39667;52.274;20.964;2023-02-16T16:32:27;100739.06;;;5.13;73.92
53754;BME280;39667;52.274;20.964;2023-02-16T16:35:20;100735.98;;;5.15;73.93
53754;BME280;39667;52.274;20.964;2023-02-16T16:37:55;100734.08;;;5.16;74.05
53754;BME280;39667;52.274;20.964;2023-02-16T16:40:32;100734.42;;;5.17;74.03
53754;BME280;39667;52.274;20.964;2023-02-16T16:46:23;100728.89;;;5.11;74.25
53754;BME280;39667;52.274;20.964;2023-02-16T16:48:59;100727.54;;;5.12;74.25
53754;BME280;39667;52.274;20.964;2023-02-16T16:51:52;100724.20;;;5.12;74.26
53754;BME280;39667;52.274;20.964;2023-02-16T16:54:46;100722.56;;;5.08;74.40
53754;BME280;39667;52.274;20.964;2023-02-16T16:57:19;100720.58;;;5.05;74.47
53754;BME280;39667;52.274;20.964;2023-02-16T17:00:01;100715.00;;;5.04;74.64
53754;BME280;39667;52.274;20.964;2023-02-16T17:02:31;100717.05;;;5.03;74.56
53754;BME280;39667;52.274;20.964;2023-02-16T17:05:02;100718.13;;;5.04;74.57
53754;BME280;39667;52.274;20.964;2023-02-16T17:07:30;100716.55;;;5.04;74.53
53754;BME280;39667;52.274;20.964;2023-02-16T17:10:24;100714.77;;;5.03;74.43
53754;BME280;39667;52.274;20.964;2023-02-16T17:12:57;100711.09;;;5.01;74.40
53754;BME280;39667;52.274;20.964;2023-02-16T17:18:25;100710.86;;;4.98;74.48
53754;BME280;39667;52.274;20.964;2023-02-16T17:20:58;100705.59;;;4.97;74.38
53754;BME280;39667;52.274;20.964;2023-02-16T17:23:27;100709.05;;;4.95;74.52
53754;BME280;39667;52.274;20.964;2023-02-16T17:26:01;100711.15;;;4.95;74.59
53754;BME280;39667;52.274;20.964;2023-02-16T17:28:31;100710.91;;;4.91;74.51
53754;BME280;39667;52.274;20.964;2023-02-16T17:31:07;100710.73;;;4.91;74.52
53754;BME280;39667;52.274;20.964;2023-02-16T17:33:40;100707.08;;;4.91;74.54
53754;BME280;39667;52.274;20.964;2023-02-16T17:36:14;100705.64;;;4.90;74.42
53754;BME280;39667;52.274;20.964;2023-02-16T17:38:47;100701.19;;;4.85;74.35
53754;BME280;39667;52.274;20.964;2023-02-16T17:41:26;100705.83;;;4.82;74.31
53754;BME280;39667;52.274;20.964;2023-02-16T17:43:55;100706.60;;;4.77;74.34
53754;BME280;39667;52.274;20.964;2023-02-16T17:46:26;100705.15;;;4.74;74.49
53754;BME280;39667;52.274;20.964;2023-02-16T17:48:55;100707.91;;;4.72;74.55
53754;BME280;39667;52.274;20.964;2023-02-16T17:51:24;100705.44;;;4.70;74.57
53754;BME280;39667;52.274;20.964;2023-02-16T17:53:51;100707.66;;;4.68;74.49
53754;BME280;39667;52.274;20.964;2023-02-16T17:56:22;100706.38;;;4.65;74.54
53754;BME280;39667;52.274;20.964;2023-02-16T17:58:51;100698.33;;;4.64;74.50
53754;BME280;39667;52.274;20.964;2023-02-16T18:01:20;100704.39;;;4.62;74.54
53754;BME280;39667;52.274;20.964;2023-02-16T18:03:49;100709.65;;;4.63;74.57
53754;BME280;39667;52.274;20.964;2023-02-16T18:06:24;100706.70;;;4.64;74.64
53754;BME280;39667;52.274;20.964;2023-02-16T18:09:05;100708.98;;;4.65;74.56
53754;BME280;39667;52.274;20.964;2023-02-16T18:11:34;100709.30;;;4.63;74.52
53754;BME280;39667;52.274;20.964;2023-02-16T18:14:01;100707.19;;;4.62;74.48
53754;BME280;39667;52.274;20.964;2023-02-16T18:16:50;100707.49;;;4.60;74.37
53754;BME280;39667;52.274;20.964;2023-02-16T18:19:19;100707.45;;;4.57;74.57
53754;BME280;39667;52.274;20.964;2023-02-16T18:22:08;100702.23;;;4.59;74.50
53754;BME280;39667;52.274;20.964;2023-02-16T18:24:44;100703.11;;;4.58;74.48
53754;BME280;39667;52.274;20.964;2023-02-16T18:27:15;100703.55;;;4.55;74.48
53754;BME280;39667;52.274;20.964;2023-02-16T18:29:50;100702.27;;;4.51;74.43
53754;BME280;39667;52.274;20.964;2023-02-16T18:32:20;100698.88;;;4.47;74.51
53754;BME280;39667;52.274;20.964;2023-02-16T18:34:56;100702.45;;;4.43;74.58
53754;BME280;39667;52.274;20.964;2023-02-16T18:37:31;100701.83;;;4.39;74.63
53754;BME280;39667;52.274;20.964;2023-02-16T18:40:19;100704.52;;;4.34;74.82
53754;BME280;39667;52.274;20.964;2023-02-16T18:42:48;100702.86;;;4.30;75.05
53754;BME280;39667;52.274;20.964;2023-02-16T18:45:20;100704.77;;;4.30;75.22
53754;BME280;39667;52.274;20.964;2023-02-16T18:47:53;100705.48;;;4.30;75.04
53754;BME280;39667;52.274;20.964;2023-02-16T18:50:20;100705.52;;;4.32;75.09
53754;BME280;39667;52.274;20.964;2023-02-16T18:52:48;100704.95;;;4.30;75.05
53754;BME280;39667;52.274;20.964;2023-02-16T18:55:17;100703.67;;;4.27;75.10
53754;BME280;39667;52.274;20.964;2023-02-16T18:57:50;100706.37;;;4.23;75.07
53754;BME280;39667;52.274;20.964;2023-02-16T19:00:16;100706.17;;;4.22;75.34
53754;BME280;39667;52.274;20.964;2023-02-16T19:02:45;100710.40;;;4.24;75.19
53754;BME280;39667;52.274;20.964;2023-02-16T19:05:32;100712.65;;;4.24;75.19
53754;BME280;39667;52.274;20.964;2023-02-16T19:09:25;100711.42;;;4.15;75.01
53754;BME280;39667;52.274;20.964;2023-02-16T19:13:21;100710.35;;;4.06;75.19
53754;BME280;39667;52.274;20.964;2023-02-16T19:17:00;100706.70;;;3.99;75.34
53754;BME280;39667;52.274;20.964;2023-02-16T19:21:27;100709.64;;;3.90;75.66
53754;BME280;39667;52.274;20.964;2023-02-16T19:25:47;100712.17;;;3.79;75.65
53754;BME280;39667;52.274;20.964;2023-02-16T19:30:18;100709.02;;;3.78;75.86
53754;BME280;39667;52.274;20.964;2023-02-16T19:48:26;100698.60;;;4.27;74.77
53754;BME280;39667;52.274;20.964;2023-02-16T19:52:55;100697.70;;;4.10;75.10
53754;BME280;39667;52.274;20.964;2023-02-16T19:57:25;100694.70;;;3.91;75.36
53754;BME280;39667;52.274;20.964;2023-02-16T20:01:44;100694.36;;;3.85;75.62
53754;BME280;39667;52.274;20.964;2023-02-16T20:06:10;100699.85;;;3.81;75.76
53754;BME280;39667;52.274;20.964;2023-02-16T20:09:48;100703.75;;;3.69;75.66
53754;BME280;39667;52.274;20.964;2023-02-16T20:15:09;100703.13;;;3.65;75.88
53754;BME280;39667;52.274;20.964;2023-02-16T20:19:16;100704.07;;;3.53;76.07
53754;BME280;39667;52.274;20.964;2023-02-16T20:23:14;100702.20;;;3.48;76.28
53754;BME280;39667;52.274;20.964;2023-02-16T20:26:53;100699.27;;;3.42;76.58
53754;BME280;39667;52.274;20.964;2023-02-16T20:31:16;100702.39;;;3.35;76.72
53754;BME280;39667;52.274;20.964;2023-02-16T20:34:41;100704.48;;;3.36;76.97
53754;BME280;39667;52.274;20.964;2023-02-16T20:38:00;100698.70;;;3.33;76.87
53754;BME280;39667;52.274;20.964;2023-02-16T20:40:55;100699.98;;;3.29;77.02
53754;BME280;39667;52.274;20.964;2023-02-16T20:48:09;100708.20;;;3.23;77.33
53754;BME280;39667;52.274;20.964;2023-02-16T20:51:25;100707.60;;;3.20;77.43
53754;BME280;39667;52.274;20.964;2023-02-16T20:54:05;100713.94;;;3.16;77.52
53754;BME280;39667;52.274;20.964;2023-02-16T21:00:51;100708.34;;;3.09;77.82
53754;BME280;39667;52.274;20.964;2023-02-16T21:04:16;100705.73;;;3.09;78.06
53754;BME280;39667;52.274;20.964;2023-02-16T21:07:58;100700.52;;;3.16;77.99
53754;BME280;39667;52.274;20.964;2023-02-16T21:20:25;100690.64;;;3.18;78.11
53754;BME280;39667;52.274;20.964;2023-02-16T21:37:42;100687.72;;;3.13;78.44
53754;BME280;39667;52.274;20.964;2023-02-16T21:47:57;100684.48;;;3.15;78.62
53754;BME280;39667;52.274;20.964;2023-02-16T21:56:50;100675.94;;;3.21;78.53
53754;BME280;39667;52.274;20.964;2023-02-16T22:00:53;100675.84;;;3.24;78.81
53754;BME280;39667;52.274;20.964;2023-02-16T22:05:13;100673.98;;;3.26;78.49
53754;BME280;39667;52.274;20.964;2023-02-16T22:09:24;100674.15;;;3.26;78.66
53754;BME280;39667;52.274;20.964;2023-02-16T22:13:18;100675.42;;;3.28;78.72
53754;BME280;39667;52.274;20.964;2023-02-16T22:17:21;100676.16;;;3.23;78.46
53754;BME280;39667;52.274;20.964;2023-02-16T22:32:10;100673.68;;;3.79;77.28
53754;BME280;39667;52.274;20.964;2023-02-16T22:35:40;100677.18;;;3.72;77.26
53754;BME280;39667;52.274;20.964;2023-02-16T22:39:48;100678.89;;;3.64;77.50
53754;BME280;39667;52.274;20.964;2023-02-16T22:43:43;100680.08;;;3.48;77.59
53754;BME280;39667;52.274;20.964;2023-02-16T22:47:53;100673.84;;;3.35;77.83
53754;BME280;39667;52.274;20.964;2023-02-16T22:51:40;100670.70;;;3.28;78.02
53754;BME280;39667;52.274;20.964;2023-02-16T22:55:28;100666.29;;;3.25;78.23
53754;BME280;39667;52.274;20.964;2023-02-16T23:02:20;100663.06;;;3.21;78.42
53754;BME280;39667;52.274;20.964;2023-02-16T23:06:35;100660.54;;;3.24;78.47
53754;BME280;39667;52.274;20.964;2023-02-16T23:14:09;100666.27;;;3.24;78.54
53754;BME280;39667;52.274;20.964;2023-02-16T23:18:12;100660.92;;;3.19;78.41
53754;BME280;39667;52.274;20.964;2023-02-16T23:26:31;100661.33;;;3.21;78.59
53754;BME280;39667;52.274;20.964;2023-02-16T23:37:32;100660.21;;;3.12;78.84
53754;BME280;39667;52.274;20.964;2023-02-16T23:42:03;100662.42;;;3.09;79.03
53754;BME280;39667;52.274;20.964;2023-02-16T23:46:05;100656.52;;;3.17;79.02
53754;BME280;39667;52.274;20.964;2023-02-16T23:50:22;100659.52;;;3.19;78.81
